createdAt,value
2022-11-16T00:00:19.185Z,7.39
2022-11-16T00:02:52.293Z,7.39
2022-11-16T00:05:27.997Z,7.38
2022-11-16T00:07:58.552Z,7.33
2022-11-16T00:10:28.524Z,7.35
2022-11-16T00:12:58.829Z,7.34
2022-11-16T00:15:29.368Z,7.35
2022-11-16T00:18:02.067Z,7.36
2022-11-16T00:20:32.079Z,7.35
2022-11-16T00:23:02.130Z,7.37
2022-11-16T00:25:32.154Z,7.43
2022-11-16T00:28:02.143Z,7.37
2022-11-16T00:30:44.673Z,7.36
2022-11-16T00:33:19.287Z,7.36
2022-11-16T00:35:49.594Z,7.36
2022-11-16T00:38:25.102Z,7.35
2022-11-16T00:40:55.257Z,7.34
2022-11-16T00:43:25.665Z,7.36
2022-11-16T00:45:56.691Z,7.37
2022-11-16T00:48:29.967Z,7.35
2022-11-16T00:51:00.684Z,7.32
2022-11-16T00:53:31.019Z,7.34
2022-11-16T00:56:01.717Z,7.36
2022-11-16T00:58:34.879Z,7.36
2022-11-16T01:01:11.845Z,7.35
2022-11-16T01:03:44.559Z,7.32
2022-11-16T01:06:16.802Z,7.32
2022-11-16T01:08:47.837Z,7.31
2022-11-16T01:11:40.571Z,7.34
2022-11-16T01:14:12.042Z,7.32
2022-11-16T01:16:42.756Z,7.32
2022-11-16T01:19:15.372Z,7.34
2022-11-16T01:21:45.809Z,7.34
2022-11-16T01:24:15.797Z,7.33
2022-11-16T01:26:45.792Z,7.33
2022-11-16T01:29:16.234Z,7.33
2022-11-16T01:31:53.850Z,7.35
2022-11-16T01:34:27.022Z,7.36
2022-11-16T01:37:03.054Z,7.35
2022-11-16T01:39:36.314Z,7.36
2022-11-16T01:42:07.146Z,7.36
2022-11-16T01:45:00.608Z,7.38
2022-11-16T01:47:32.266Z,7.36
2022-11-16T01:50:13.134Z,7.36
2022-11-16T01:52:50.239Z,7.37
2022-11-16T01:55:21.798Z,7.37
2022-11-16T01:58:28.933Z,7.36
2022-11-16T02:01:11.963Z,7.37
2022-11-16T02:03:48.453Z,7.37
2022-11-16T02:06:36.065Z,7.39
2022-11-16T02:09:54.913Z,7.39
2022-11-16T02:13:04.012Z,7.39
2022-11-16T02:15:55.096Z,7.40
2022-11-16T02:18:48.800Z,7.41
2022-11-16T02:21:29.926Z,7.40
2022-11-16T02:24:27.720Z,7.40
2022-11-16T02:27:42.279Z,7.41
2022-11-16T02:30:15.645Z,7.42
2022-11-16T02:32:52.871Z,7.43
2022-11-16T02:35:28.524Z,7.43
2022-11-16T02:38:05.404Z,7.44
2022-11-16T02:40:40.411Z,7.42
2022-11-16T02:43:15.144Z,7.44
2022-11-16T02:45:54.871Z,7.47
2022-11-16T02:48:30.465Z,7.44
2022-11-16T02:51:00.942Z,7.44
2022-11-16T02:53:31.244Z,7.46
2022-11-16T02:56:02.817Z,7.50
2022-11-16T02:58:33.527Z,7.53
2022-11-16T03:01:11.828Z,7.49
2022-11-16T03:03:46.967Z,7.49
2022-11-16T03:06:23.949Z,7.50
2022-11-16T03:09:03.287Z,7.49
2022-11-16T03:11:49.879Z,7.48
2022-11-16T03:14:25.490Z,7.48
2022-11-16T03:17:00.326Z,7.47
2022-11-16T03:19:37.032Z,7.47
2022-11-16T03:22:14.302Z,7.50
2022-11-16T03:24:44.826Z,7.49
2022-11-16T03:27:24.530Z,7.50
2022-11-16T03:30:03.145Z,7.50
2022-11-16T03:32:43.399Z,7.52
2022-11-16T03:35:19.178Z,7.53
2022-11-16T03:37:55.680Z,7.52
2022-11-16T03:40:29.799Z,7.53
2022-11-16T03:43:02.892Z,7.54
2022-11-16T03:45:34.980Z,7.55
2022-11-16T03:48:11.219Z,7.55
2022-11-16T03:50:41.992Z,7.55
2022-11-16T03:53:13.022Z,7.54
2022-11-16T03:55:48.531Z,7.55
2022-11-16T03:58:20.121Z,7.55
2022-11-16T04:00:50.968Z,7.57
2022-11-16T04:03:24.182Z,7.57
2022-11-16T04:06:07.024Z,7.56
2022-11-16T04:08:49.524Z,7.57
2022-11-16T04:11:35.888Z,7.57
2022-11-16T04:14:18.519Z,7.58
2022-11-16T04:17:00.908Z,7.57
2022-11-16T04:19:45.886Z,7.57
2022-11-16T04:22:34.674Z,7.57
2022-11-16T04:25:11.892Z,7.57
2022-11-16T04:27:54.362Z,7.56
2022-11-16T04:30:48.644Z,7.57
2022-11-16T04:33:31.830Z,7.58
2022-11-16T04:36:20.606Z,7.57
2022-11-16T04:38:51.040Z,7.60
2022-11-16T04:41:33.936Z,7.61
2022-11-16T04:44:03.974Z,7.58
2022-11-16T04:46:46.934Z,7.59
2022-11-16T04:49:17.036Z,7.60
2022-11-16T04:51:50.008Z,7.61
2022-11-16T04:54:20.581Z,7.60
2022-11-16T04:56:50.706Z,7.61
2022-11-16T04:59:21.060Z,7.60
2022-11-16T05:02:03.552Z,7.60
2022-11-16T05:04:33.647Z,7.59
2022-11-16T05:07:10.982Z,7.62
2022-11-16T05:09:45.856Z,7.62
2022-11-16T05:12:18.648Z,7.62
2022-11-16T05:14:50.680Z,7.63
2022-11-16T05:17:22.463Z,7.60
2022-11-16T05:20:04.992Z,7.60
2022-11-16T05:22:44.393Z,7.57
2022-11-16T05:25:15.690Z,7.56
2022-11-16T05:27:45.756Z,7.57
2022-11-16T05:30:16.480Z,7.54
2022-11-16T05:32:47.025Z,7.55
2022-11-16T05:35:19.682Z,7.55
2022-11-16T05:37:53.350Z,7.57
2022-11-16T05:40:24.062Z,7.57
2022-11-16T05:43:02.652Z,7.56
2022-11-16T05:45:38.565Z,7.60
2022-11-16T05:48:10.652Z,7.59
2022-11-16T05:50:42.949Z,7.60
2022-11-16T05:53:26.793Z,7.61
2022-11-16T05:55:57.095Z,7.61
2022-11-16T05:58:27.844Z,7.61
2022-11-16T06:00:58.699Z,7.60
2022-11-16T06:03:31.261Z,7.61
2022-11-16T06:06:03.219Z,7.62
2022-11-16T06:08:37.927Z,7.62
2022-11-16T06:11:13.591Z,7.61
2022-11-16T06:13:43.743Z,7.62
2022-11-16T06:16:15.384Z,7.62
2022-11-16T06:18:47.583Z,7.62
2022-11-16T06:21:21.140Z,7.64
2022-11-16T06:23:54.782Z,7.65
2022-11-16T06:26:24.804Z,7.67
2022-11-16T06:28:55.053Z,7.69
2022-11-16T06:31:26.291Z,7.70
2022-11-16T06:33:58.265Z,7.71
2022-11-16T06:36:31.527Z,7.72
2022-11-16T06:39:05.219Z,7.76
2022-11-16T06:41:41.463Z,7.77
2022-11-16T06:44:13.783Z,7.79
2022-11-16T06:46:54.185Z,7.82
2022-11-16T06:49:24.226Z,7.83
2022-11-16T06:51:56.264Z,7.85
2022-11-16T06:54:29.106Z,7.87
2022-11-16T06:56:59.212Z,7.88
2022-11-16T06:59:29.746Z,7.89
2022-11-16T07:02:01.073Z,7.91
2022-11-16T07:04:35.026Z,7.98
2022-11-16T07:07:05.780Z,7.99
2022-11-16T07:09:40.587Z,8.01
2022-11-16T07:12:11.419Z,8.06
2022-11-16T07:14:45.659Z,8.09
2022-11-16T07:17:17.857Z,8.11
2022-11-16T07:19:48.200Z,8.13
2022-11-16T07:22:18.824Z,8.19
2022-11-16T07:24:52.250Z,8.18
2022-11-16T07:27:24.044Z,8.19
2022-11-16T07:29:55.716Z,8.25
2022-11-16T07:32:40.087Z,8.25
2022-11-16T07:35:18.205Z,8.27
2022-11-16T07:37:48.366Z,8.25
2022-11-16T07:40:22.184Z,8.30
2022-11-16T07:42:52.680Z,8.31
2022-11-16T07:45:36.701Z,8.33
2022-11-16T07:48:10.608Z,8.35
2022-11-16T07:51:04.497Z,8.39
2022-11-16T07:53:38.229Z,8.40
2022-11-16T07:56:12.303Z,8.42
2022-11-16T07:58:43.936Z,8.44
2022-11-16T08:01:15.976Z,8.43
2022-11-16T08:03:48.953Z,8.48
2022-11-16T08:06:22.169Z,8.49
2022-11-16T08:08:58.314Z,8.53
2022-11-16T08:11:32.092Z,8.51
2022-11-16T08:14:02.068Z,8.57
2022-11-16T08:16:33.485Z,8.62
2022-11-16T08:19:11.791Z,8.67
2022-11-16T08:21:41.930Z,8.58
2022-11-16T08:24:12.771Z,8.66
2022-11-16T08:26:47.838Z,8.65
2022-11-16T08:29:18.681Z,8.66
2022-11-16T08:31:53.073Z,8.67
2022-11-16T08:34:25.009Z,8.75
2022-11-16T08:37:00.524Z,8.73
2022-11-16T08:39:40.566Z,8.75
2022-11-16T08:42:14.574Z,8.79
2022-11-16T08:44:49.590Z,8.80
2022-11-16T08:47:22.539Z,8.78
2022-11-16T08:49:56.482Z,8.79
2022-11-16T08:52:29.117Z,8.78
2022-11-16T08:55:00.390Z,8.82
2022-11-16T08:57:33.686Z,8.88
2022-11-16T09:00:09.621Z,8.89
2022-11-16T09:02:39.637Z,8.93
2022-11-16T09:05:12.226Z,8.95
2022-11-16T09:07:44.226Z,8.97
2022-11-16T09:10:15.214Z,8.95
2022-11-16T09:12:48.010Z,9.07
2022-11-16T09:15:19.630Z,9.15
2022-11-16T09:17:54.944Z,9.25
2022-11-16T09:20:26.516Z,9.37
2022-11-16T09:22:56.589Z,9.44
2022-11-16T09:25:26.867Z,9.44
2022-11-16T09:28:00.676Z,9.38
2022-11-16T09:30:31.684Z,9.42
2022-11-16T09:33:02.215Z,9.50
2022-11-16T09:35:32.233Z,9.61
2022-11-16T09:38:02.229Z,9.52
2022-11-16T09:40:36.299Z,9.59
2022-11-16T09:43:18.737Z,9.55
2022-11-16T09:45:56.022Z,9.59
2022-11-16T09:48:27.632Z,9.67
2022-11-16T09:51:01.904Z,9.57
2022-11-16T09:53:36.421Z,9.64
2022-11-16T09:56:10.618Z,9.69
2022-11-16T09:58:51.124Z,9.65
2022-11-16T10:01:27.190Z,9.72
2022-11-16T10:04:03.684Z,9.73
2022-11-16T10:06:43.975Z,9.78
2022-11-16T10:09:16.614Z,9.77
2022-11-16T10:12:12.444Z,9.79
2022-11-16T10:15:13.153Z,9.75
2022-11-16T10:18:12.091Z,9.78
2022-11-16T10:20:56.785Z,9.75
2022-11-16T10:23:38.908Z,9.77
2022-11-16T10:26:21.160Z,9.86
2022-11-16T10:29:05.185Z,9.89
2022-11-16T10:31:45.116Z,9.92
2022-11-16T10:34:23.781Z,9.96
2022-11-16T10:36:54.253Z,10.02
2022-11-16T10:39:24.897Z,10.07
2022-11-16T10:41:55.093Z,10.05
2022-11-16T10:44:33.243Z,10.14
2022-11-16T10:47:07.658Z,10.20
2022-11-16T10:49:49.675Z,10.22
2022-11-16T10:52:19.717Z,10.25
2022-11-16T10:54:49.881Z,10.25
2022-11-16T10:57:20.062Z,10.22
2022-11-16T10:59:53.416Z,10.27
2022-11-16T11:02:35.428Z,10.25
2022-11-16T11:05:17.197Z,10.22
2022-11-16T11:07:58.337Z,10.24
2022-11-16T11:10:34.947Z,10.14
2022-11-16T11:13:25.841Z,10.07
2022-11-16T11:16:15.387Z,10.03
2022-11-16T11:18:45.387Z,10.00
2022-11-16T11:21:24.502Z,9.99
2022-11-16T11:24:10.620Z,10.04
2022-11-16T11:26:52.366Z,10.03
2022-11-16T11:29:27.940Z,10.02
2022-11-16T11:32:00.901Z,9.98
2022-11-16T11:34:33.542Z,9.99
2022-11-16T11:37:08.754Z,9.99
2022-11-16T11:39:39.938Z,9.98
2022-11-16T11:42:23.825Z,9.98
2022-11-16T11:45:01.350Z,9.98
2022-11-16T11:48:02.191Z,10.03
2022-11-16T11:50:53.804Z,10.04
2022-11-16T11:53:42.197Z,10.06
2022-11-16T11:56:15.113Z,10.03
2022-11-16T11:58:46.628Z,10.03
2022-11-16T12:01:50.555Z,10.05
2022-11-16T12:04:45.540Z,9.96
2022-11-16T12:07:25.356Z,10.02
2022-11-16T12:10:07.397Z,9.99
2022-11-16T12:12:50.285Z,9.95
2022-11-16T12:15:41.805Z,9.97
2022-11-16T12:18:28.882Z,9.98
2022-11-16T12:21:08.103Z,9.96
2022-11-16T12:23:56.971Z,9.97
2022-11-16T12:26:43.590Z,9.98
2022-11-16T12:29:27.042Z,9.99
2022-11-16T12:32:18.565Z,9.98
2022-11-16T12:35:01.528Z,10.00
2022-11-16T12:37:41.817Z,9.93
2022-11-16T12:40:32.038Z,10.02
2022-11-16T12:43:14.773Z,9.99
2022-11-16T12:46:05.952Z,10.00
2022-11-16T12:49:05.596Z,9.90
2022-11-16T12:51:50.193Z,9.93
2022-11-16T12:55:23.989Z,9.98
2022-11-16T12:57:55.974Z,9.98
2022-11-16T13:00:31.230Z,10.01
2022-11-16T13:03:19.634Z,9.99
2022-11-16T13:06:00.163Z,9.95
2022-11-16T13:08:46.980Z,9.96
2022-11-16T13:11:22.257Z,9.94
2022-11-16T13:13:59.293Z,9.96
2022-11-16T13:16:32.496Z,9.91
2022-11-16T13:19:03.895Z,9.92
2022-11-16T13:21:46.875Z,9.89
2022-11-16T13:24:33.442Z,9.90
2022-11-16T13:27:19.742Z,9.89
2022-11-16T13:29:56.700Z,9.90
2022-11-16T13:32:39.881Z,9.87
2022-11-16T13:35:16.616Z,9.89
2022-11-16T13:37:52.061Z,9.82
2022-11-16T13:40:33.701Z,9.86
2022-11-16T13:43:17.596Z,9.84
2022-11-16T13:45:54.105Z,9.85
2022-11-16T13:48:31.698Z,9.82
2022-11-16T13:51:05.205Z,9.86
2022-11-16T13:56:29.712Z,9.88
2022-11-16T13:59:01.529Z,9.88
2022-11-16T14:01:59.562Z,9.84
2022-11-16T14:04:44.742Z,9.83
2022-11-16T14:07:34.334Z,9.83
2022-11-16T14:10:05.810Z,9.81
2022-11-16T14:13:04.518Z,9.79
2022-11-16T14:15:40.046Z,9.77
2022-11-16T14:18:38.435Z,9.74
2022-11-16T14:21:26.789Z,9.64
2022-11-16T14:24:14.738Z,9.61
2022-11-16T14:26:59.184Z,9.57
2022-11-16T14:29:44.731Z,9.53
2022-11-16T14:32:24.252Z,9.53
2022-11-16T14:34:56.340Z,9.52
2022-11-16T14:37:39.334Z,9.52
2022-11-16T14:40:17.841Z,9.54
2022-11-16T14:43:15.418Z,9.52
2022-11-16T14:45:44.030Z,9.52
2022-11-16T14:48:18.992Z,9.52
2022-11-16T14:51:01.981Z,9.53
2022-11-16T14:53:37.540Z,9.51
2022-11-16T14:56:13.639Z,9.49
2022-11-16T14:58:54.169Z,9.49
2022-11-16T15:01:27.227Z,9.48
2022-11-16T15:04:02.577Z,9.46
2022-11-16T15:06:43.783Z,9.44
2022-11-16T15:09:22.755Z,9.42
2022-11-16T15:12:06.249Z,9.41
2022-11-16T15:14:41.202Z,9.40
2022-11-16T15:17:12.148Z,9.38
2022-11-16T15:19:42.195Z,9.37
2022-11-16T15:22:20.958Z,9.36
2022-11-16T15:25:03.935Z,9.36
2022-11-16T15:27:40.684Z,9.34
2022-11-16T15:30:20.416Z,9.36
2022-11-16T15:32:53.060Z,9.36
2022-11-16T15:35:28.047Z,9.36
2022-11-16T15:38:09.346Z,9.35
2022-11-16T15:40:42.762Z,9.35
2022-11-16T15:43:15.023Z,9.33
2022-11-16T15:45:46.902Z,9.33
2022-11-16T15:48:21.171Z,9.34
2022-11-16T15:51:08.205Z,9.30
2022-11-16T15:53:40.932Z,9.29
2022-11-16T15:56:18.408Z,9.30
2022-11-16T15:58:49.289Z,9.29
2022-11-16T16:01:20.143Z,9.30
2022-11-16T16:03:57.887Z,9.28
2022-11-16T16:06:56.471Z,9.15
2022-11-16T16:09:29.805Z,9.16
2022-11-16T16:12:19.683Z,9.09
2022-11-16T16:14:51.431Z,9.12
2022-11-16T16:17:27.136Z,8.96
2022-11-16T16:19:59.256Z,9.02
2022-11-16T16:22:32.562Z,8.98
2022-11-16T16:25:04.262Z,8.97
2022-11-16T16:27:42.866Z,8.97
2022-11-16T16:30:17.131Z,9.00
2022-11-16T16:32:51.551Z,9.03
2022-11-16T16:35:30.673Z,8.87
2022-11-16T16:38:11.355Z,8.90
2022-11-16T16:40:41.617Z,8.87
2022-11-16T16:43:14.744Z,8.72
2022-11-16T16:45:46.331Z,8.76
2022-11-16T16:48:16.597Z,8.87
2022-11-16T16:50:47.221Z,8.76
2022-11-16T16:53:18.144Z,8.70
2022-11-16T16:55:49.175Z,8.71
2022-11-16T16:58:22.611Z,8.58
2022-11-16T17:01:01.002Z,8.65
2022-11-16T17:03:33.733Z,8.62
2022-11-16T17:06:04.592Z,8.57
2022-11-16T17:08:36.714Z,8.56
2022-11-16T17:11:07.508Z,8.50
2022-11-16T17:13:40.125Z,8.50
2022-11-16T17:16:10.933Z,8.42
2022-11-16T17:18:40.971Z,8.54
2022-11-16T17:21:12.429Z,8.47
2022-11-16T17:23:42.466Z,8.42
2022-11-16T17:26:12.605Z,8.46
2022-11-16T17:28:45.288Z,8.36
2022-11-16T17:31:17.577Z,8.36
2022-11-16T17:33:49.945Z,8.36
2022-11-16T17:36:20.461Z,8.35
2022-11-16T17:38:50.448Z,8.31
2022-11-16T17:41:22.817Z,8.31
2022-11-16T17:43:57.031Z,8.24
2022-11-16T17:46:27.458Z,8.36
2022-11-16T17:48:57.838Z,8.26
2022-11-16T17:51:29.968Z,8.20
2022-11-16T17:54:00.266Z,8.22
2022-11-16T17:56:30.922Z,8.25
2022-11-16T17:59:03.942Z,8.19
2022-11-16T18:01:34.055Z,8.20
2022-11-16T18:04:06.219Z,8.18
2022-11-16T18:06:36.316Z,8.22
2022-11-16T18:09:06.385Z,8.14
2022-11-16T18:11:36.637Z,8.17
2022-11-16T18:14:10.680Z,8.23
2022-11-16T18:16:42.467Z,8.19
2022-11-16T18:19:12.921Z,8.21
2022-11-16T18:21:44.155Z,8.13
2022-11-16T18:24:14.964Z,8.15
2022-11-16T18:26:45.383Z,8.12
2022-11-16T18:29:19.847Z,8.10
2022-11-16T18:31:49.851Z,8.11
2022-11-16T18:34:19.820Z,8.09
2022-11-16T18:36:52.372Z,7.97
2022-11-16T18:39:22.369Z,8.10
2022-11-16T18:41:55.075Z,7.99
2022-11-16T18:44:28.351Z,8.04
2022-11-16T18:46:58.293Z,8.05
2022-11-16T18:49:28.365Z,8.05
2022-11-16T18:51:58.749Z,7.92
2022-11-16T18:54:28.824Z,7.98
2022-11-16T18:56:58.936Z,7.92
2022-11-16T18:59:31.881Z,7.88
2022-11-16T19:02:01.948Z,7.93
2022-11-16T19:04:32.256Z,7.97
2022-11-16T19:07:02.620Z,8.00
2022-11-16T19:09:32.879Z,8.00
2022-11-16T19:12:02.947Z,8.00
2022-11-16T19:14:35.940Z,8.00
2022-11-16T19:17:06.660Z,7.96
2022-11-16T19:19:36.671Z,7.93
2022-11-16T19:22:06.677Z,8.00
2022-11-16T19:24:37.001Z,7.90
2022-11-16T19:27:07.118Z,7.87
2022-11-16T19:29:39.881Z,7.91
2022-11-16T19:32:09.938Z,7.83
2022-11-16T19:34:40.290Z,7.81
2022-11-16T19:37:10.867Z,7.81
2022-11-16T19:39:40.852Z,7.83
2022-11-16T19:42:11.222Z,7.79
2022-11-16T19:44:43.805Z,7.89
2022-11-16T19:47:13.846Z,7.77
2022-11-16T19:49:43.899Z,7.77
2022-11-16T19:52:14.343Z,7.75
2022-11-16T19:54:44.486Z,7.77
2022-11-16T19:57:15.792Z,7.87
2022-11-16T19:59:48.600Z,7.81
2022-11-16T20:02:18.575Z,7.79
2022-11-16T20:04:48.733Z,7.77
2022-11-16T20:07:20.052Z,7.80
2022-11-16T20:09:53.337Z,7.72
2022-11-16T20:12:25.160Z,7.78
2022-11-16T20:14:57.726Z,7.79
2022-11-16T20:17:27.799Z,7.72
2022-11-16T20:19:58.034Z,7.75
2022-11-16T20:22:28.023Z,7.71
2022-11-16T20:24:58.565Z,7.73
2022-11-16T20:27:28.600Z,7.70
2022-11-16T20:30:06.489Z,7.72
2022-11-16T20:32:39.210Z,7.71
2022-11-16T20:35:10.486Z,7.70
2022-11-16T20:37:43.285Z,7.71
2022-11-16T20:40:14.666Z,7.71
2022-11-16T20:42:45.209Z,7.73
2022-11-16T20:45:20.276Z,7.73
2022-11-16T20:47:50.367Z,7.69
2022-11-16T20:50:20.534Z,7.66
2022-11-16T20:52:52.814Z,7.69
2022-11-16T20:55:23.036Z,7.72
2022-11-16T20:57:53.020Z,7.71
2022-11-16T21:00:28.116Z,7.72
2022-11-16T21:02:58.488Z,7.70
2022-11-16T21:05:28.485Z,7.69
2022-11-16T21:07:59.719Z,7.70
2022-11-16T21:10:31.213Z,7.74
2022-11-16T21:13:13.579Z,7.61
2022-11-16T21:15:46.709Z,7.64
2022-11-16T21:18:17.010Z,7.63
2022-11-16T21:20:46.981Z,7.57
2022-11-16T21:23:16.957Z,7.57
2022-11-16T21:25:47.340Z,7.53
2022-11-16T21:28:20.184Z,7.60
2022-11-16T21:31:04.582Z,7.53
2022-11-16T21:33:35.373Z,7.53
2022-11-16T21:36:07.111Z,7.53
2022-11-16T21:38:37.584Z,7.56
2022-11-16T21:41:08.454Z,7.53
2022-11-16T21:43:40.445Z,7.46
2022-11-16T21:46:14.388Z,7.52
2022-11-16T21:48:44.914Z,7.49
2022-11-16T21:51:16.700Z,7.50
2022-11-16T21:53:47.276Z,7.46
2022-11-16T21:56:19.336Z,7.52
2022-11-16T21:58:50.060Z,7.48
2022-11-16T22:01:23.425Z,7.49
2022-11-16T22:04:06.183Z,7.48
2022-11-16T22:06:48.678Z,7.48
2022-11-16T22:09:18.770Z,7.50
2022-11-16T22:11:48.831Z,7.49
2022-11-16T22:14:18.877Z,7.51
2022-11-16T22:16:53.757Z,7.45
2022-11-16T22:19:23.896Z,7.43
2022-11-16T22:21:53.941Z,7.43
2022-11-16T22:24:24.057Z,7.42
2022-11-16T22:26:54.273Z,7.45
2022-11-16T22:29:24.468Z,7.40
2022-11-16T22:31:58.659Z,7.42
2022-11-16T22:34:28.774Z,7.40
2022-11-16T22:36:58.847Z,7.40
2022-11-16T22:39:28.850Z,7.39
2022-11-16T22:41:58.996Z,7.44
2022-11-16T22:44:29.037Z,7.43
2022-11-16T22:47:01.873Z,7.42
2022-11-16T22:49:31.867Z,7.44
2022-11-16T22:52:03.323Z,7.41
2022-11-16T22:54:34.777Z,7.40
2022-11-16T22:57:04.962Z,7.39
2022-11-16T22:59:35.087Z,7.39
2022-11-16T23:02:08.677Z,7.39
2022-11-16T23:04:38.903Z,7.34
2022-11-16T23:07:08.956Z,7.36
2022-11-16T23:09:38.973Z,7.34
2022-11-16T23:12:21.727Z,7.35
2022-11-16T23:15:04.156Z,7.33
2022-11-16T23:17:37.037Z,7.31
2022-11-16T23:20:21.193Z,7.36
2022-11-16T23:23:05.936Z,7.32
2022-11-16T23:25:48.619Z,7.32
2022-11-16T23:28:21.052Z,7.29
2022-11-16T23:30:51.595Z,7.28
2022-11-16T23:33:44.040Z,7.30
2022-11-16T23:36:14.764Z,7.28
2022-11-16T23:38:44.744Z,7.30
2022-11-16T23:41:27.106Z,7.24
2022-11-16T23:44:03.138Z,7.29
2022-11-16T23:46:36.849Z,7.25
2022-11-16T23:49:09.471Z,7.29
2022-11-16T23:51:39.466Z,7.31
2022-11-16T23:54:09.614Z,7.34
2022-11-16T23:56:39.836Z,7.25
2022-11-16T23:59:09.989Z,7.27
